Terminal Aerodrome Forecast
Issued by NWS

Home | Current Version | Previous Version | Text Only | Print | Product List | Glossary On
Versions: 1 2 3 4 5 6 7 8 9 10 11 12 13 14 15 16 17 18 19 20 21 22 23 24 25 26 27 28 29
120
FTUS44 KFWD 250129 AAA
TAFDAL
TAF AMD
KDAL 250129Z 2501/2524 22013KT P6SM FEW050
     FM250300 27016KT P6SM SCT100
      TEMPO 2503/2505 BKN100
     FM251100 30015KT P6SM FEW250=

USA.gov is the U.S. government's official web portal to all federal, state and local government web resources and services.